FLUGWETTER MÜNCHEN AIRPORT

[source: ADDS]
METAR
EDDM 102150Z 26002KT CAVOK M02/M02 Q1023 NOSIG =
TAF
TAF EDDM 101700Z 1018/1124 24005KT CAVOK TEMPO 1018/1108 VRB03KT BECMG 1106/1108 25010KT TEMPO 1111/1114 27015G25KT 4000 -RADZ BECMG 1112/1114 BKN012 =
SR / SS: 06:54 / 15:20 UTC (Tag 2016-12-10)

QR-Code dieser Seite

QR-Code dieser Seite